createdAt,value
2023-11-01T00:00:32.331Z,191.30
2023-11-01T00:02:59.868Z,194.00
2023-11-01T00:05:27.354Z,190.40
2023-11-01T00:07:54.741Z,187.97
2023-11-01T00:10:22.213Z,187.43
2023-11-01T00:12:49.689Z,192.43
2023-11-01T00:15:17.265Z,190.93
2023-11-01T00:17:44.984Z,185.87
2023-11-01T00:20:12.367Z,189.10
2023-11-01T00:22:39.835Z,185.10
2023-11-01T00:25:07.570Z,189.47
2023-11-01T00:27:35.222Z,192.27
2023-11-01T00:30:02.814Z,188.30
2023-11-01T00:32:30.386Z,187.60
2023-11-01T00:34:57.934Z,189.87
2023-11-01T00:37:25.509Z,187.93
2023-11-01T00:39:53.463Z,188.57
2023-11-01T00:42:20.850Z,189.30
2023-11-01T00:44:48.246Z,185.90
2023-11-01T00:47:16.359Z,186.97
2023-11-01T00:49:43.874Z,186.27
2023-11-01T00:52:11.813Z,190.90
2023-11-01T00:54:38.911Z,187.37
2023-11-01T00:57:06.422Z,182.47
2023-11-01T00:59:33.862Z,191.50
2023-11-01T01:02:01.365Z,187.20
2023-11-01T01:04:29.104Z,185.93
2023-11-01T01:06:57.306Z,187.37
2023-11-01T01:09:25.273Z,189.77
2023-11-01T01:11:52.782Z,185.77
2023-11-01T01:14:20.940Z,185.13
2023-11-01T01:16:48.503Z,184.37
2023-11-01T01:19:16.488Z,188.17
2023-11-01T01:21:44.642Z,183.80
2023-11-01T01:24:12.065Z,184.63
2023-11-01T01:26:39.522Z,182.43
2023-11-01T01:29:07.127Z,185.73
2023-11-01T01:31:37.525Z,184.53
2023-11-01T01:34:05.012Z,184.20
2023-11-01T01:36:34.374Z,183.83
2023-11-01T01:39:01.915Z,185.13
2023-11-01T01:41:29.613Z,184.23
2023-11-01T01:43:57.366Z,182.67
2023-11-01T01:46:28.368Z,184.20
2023-11-01T01:48:55.986Z,183.97
2023-11-01T01:51:23.499Z,182.97
2023-11-01T01:53:52.785Z,180.77
2023-11-01T01:56:20.799Z,187.60
2023-11-01T01:58:48.262Z,186.37
2023-11-01T02:01:15.862Z,185.93
2023-11-01T02:03:43.426Z,180.77
2023-11-01T02:06:10.680Z,184.70
2023-11-01T02:08:38.290Z,181.80
2023-11-01T02:11:06.143Z,182.43
2023-11-01T02:13:33.528Z,183.63
2023-11-01T02:16:01.018Z,180.17
2023-11-01T02:18:28.475Z,181.63
2023-11-01T02:20:56.246Z,181.23
2023-11-01T02:23:43.875Z,182.67
2023-11-01T02:26:11.398Z,178.00
2023-11-01T02:28:38.814Z,184.80
2023-11-01T02:31:06.370Z,180.70
2023-11-01T02:33:33.868Z,183.37
2023-11-01T02:36:01.362Z,180.60
2023-11-01T02:38:28.812Z,181.30
2023-11-01T02:40:56.240Z,182.63
2023-11-01T02:43:23.655Z,183.17
2023-11-01T02:45:51.074Z,183.93
2023-11-01T02:48:18.490Z,183.93
2023-11-01T02:50:45.942Z,183.60
2023-11-01T02:53:13.228Z,186.20
2023-11-01T02:55:42.188Z,180.20
2023-11-01T02:58:09.644Z,185.73
2023-11-01T03:00:37.236Z,185.43
2023-11-01T03:03:04.818Z,183.67
2023-11-01T03:05:32.323Z,180.43
2023-11-01T03:07:59.821Z,185.93
2023-11-01T03:10:27.215Z,182.77
2023-11-01T03:12:54.598Z,184.00
2023-11-01T03:15:22.085Z,183.83
2023-11-01T03:17:49.647Z,181.47
2023-11-01T03:20:17.211Z,183.10
2023-11-01T03:22:44.760Z,182.67
2023-11-01T03:25:12.322Z,184.20
2023-11-01T03:27:39.813Z,185.93
2023-11-01T03:30:08.696Z,177.33
2023-11-01T03:32:36.294Z,186.77
2023-11-01T03:35:04.003Z,181.43
2023-11-01T03:37:31.773Z,180.87
2023-11-01T03:39:59.194Z,184.43
2023-11-01T03:42:26.668Z,184.07
2023-11-01T03:44:56.998Z,183.70
2023-11-01T03:47:24.575Z,184.07
2023-11-01T03:49:53.224Z,181.80
2023-11-01T03:52:21.925Z,185.43
2023-11-01T03:54:49.403Z,178.10
2023-11-01T03:57:17.825Z,182.70
2023-11-01T03:59:45.226Z,186.93
2023-11-01T04:02:12.620Z,181.90
2023-11-01T04:04:40.128Z,187.13
2023-11-01T04:07:07.603Z,185.43
2023-11-01T04:09:35.033Z,182.70
2023-11-01T04:12:02.447Z,184.20
2023-11-01T04:14:29.926Z,185.87
2023-11-01T04:16:57.454Z,185.87
2023-11-01T04:19:24.942Z,187.50
2023-11-01T04:21:52.435Z,181.43
2023-11-01T04:24:20.606Z,184.07
2023-11-01T04:26:48.081Z,183.43
2023-11-01T04:29:15.534Z,185.07
2023-11-01T04:31:42.963Z,181.10
2023-11-01T04:34:11.679Z,184.63
2023-11-01T04:36:39.100Z,184.27
2023-11-01T04:39:06.512Z,187.47
2023-11-01T04:41:33.972Z,191.17
2023-11-01T04:44:01.388Z,183.63
2023-11-01T04:46:28.874Z,190.57
2023-11-01T04:48:56.396Z,186.40
2023-11-01T04:51:23.756Z,188.63
2023-11-01T04:53:51.136Z,186.13
2023-11-01T04:56:18.582Z,183.60
2023-11-01T04:58:46.003Z,185.50
2023-11-01T05:01:14.318Z,179.67
2023-11-01T05:03:41.865Z,181.63
2023-11-01T05:06:09.621Z,181.10
2023-11-01T05:08:37.523Z,183.37
2023-11-01T05:11:06.183Z,182.63
2023-11-01T05:13:34.020Z,182.00
2023-11-01T05:16:01.508Z,184.50
2023-11-01T05:18:29.186Z,181.33
2023-11-01T05:20:56.599Z,183.00
2023-11-01T05:23:24.336Z,181.37
2023-11-01T05:25:51.722Z,185.40
2023-11-01T05:28:19.465Z,180.73
2023-11-01T05:30:49.644Z,182.57
2023-11-01T05:33:20.751Z,181.93
2023-11-01T05:35:49.582Z,181.03
2023-11-01T05:38:17.131Z,179.37
2023-11-01T05:40:44.616Z,180.10
2023-11-01T05:43:12.041Z,182.20
2023-11-01T05:45:39.509Z,182.23
2023-11-01T05:48:10.049Z,182.23
2023-11-01T05:50:38.258Z,179.03
2023-11-01T05:53:10.733Z,180.93
2023-11-01T05:55:54.633Z,178.60
2023-11-01T05:58:29.752Z,179.93
2023-11-01T06:00:57.612Z,181.57
2023-11-01T06:03:27.214Z,176.73
2023-11-01T06:05:58.906Z,180.73
2023-11-01T06:08:26.783Z,180.83
2023-11-01T06:10:55.460Z,179.93
2023-11-01T06:13:23.018Z,181.03
2023-11-01T06:15:52.817Z,179.87
2023-11-01T06:18:22.104Z,180.00
2023-11-01T06:20:49.621Z,180.57
2023-11-01T06:23:17.164Z,180.10
2023-11-01T06:25:45.509Z,180.23
2023-11-01T06:28:12.862Z,179.67
2023-11-01T06:30:40.325Z,177.40
2023-11-01T06:33:08.037Z,180.97
2023-11-01T06:35:35.624Z,181.43
2023-11-01T06:38:03.197Z,180.00
2023-11-01T06:40:31.420Z,178.20
2023-11-01T06:42:58.962Z,177.03
2023-11-01T06:45:27.338Z,181.10
2023-11-01T06:47:54.904Z,180.80
2023-11-01T06:50:23.258Z,181.07
2023-11-01T06:52:50.826Z,179.83
2023-11-01T06:55:18.234Z,179.60
2023-11-01T06:57:45.790Z,178.27
2023-11-01T07:00:14.328Z,178.77
2023-11-01T07:02:41.792Z,179.67
2023-11-01T07:05:09.181Z,176.87
2023-11-01T07:07:36.593Z,178.90
2023-11-01T07:10:04.267Z,178.07
2023-11-01T07:12:31.652Z,178.50
2023-11-01T07:14:59.069Z,174.07
2023-11-01T07:17:29.499Z,174.97
2023-11-01T07:19:58.364Z,175.77
2023-11-01T07:22:26.451Z,178.10
2023-11-01T07:24:54.215Z,176.63
2023-11-01T07:27:21.675Z,178.23
2023-11-01T07:29:49.102Z,180.50
2023-11-01T07:32:18.080Z,237.97
2023-11-01T07:34:45.765Z,181.37
2023-11-01T07:37:13.697Z,242.57
2023-11-01T07:39:41.119Z,180.90
2023-11-01T07:42:08.583Z,184.20
2023-11-01T07:44:36.145Z,185.20
2023-11-01T07:47:03.595Z,182.50
2023-11-01T07:49:31.008Z,179.20
2023-11-01T07:51:58.587Z,177.83
2023-11-01T07:54:26.019Z,177.90
2023-11-01T07:56:53.485Z,182.47
2023-11-01T07:59:21.139Z,176.63
2023-11-01T08:01:48.707Z,179.33
2023-11-01T08:04:18.449Z,180.07
2023-11-01T08:06:47.205Z,177.37
2023-11-01T08:09:16.409Z,177.40
2023-11-01T08:11:44.263Z,178.10
2023-11-01T08:14:11.685Z,182.03
2023-11-01T08:16:39.192Z,182.17
2023-11-01T08:19:06.846Z,180.27
2023-11-01T08:21:34.401Z,190.67
2023-11-01T08:24:01.758Z,187.63
2023-11-01T08:26:29.969Z,188.17
2023-11-01T08:28:57.654Z,178.63
2023-11-01T08:31:25.207Z,177.37
2023-11-01T08:33:52.884Z,174.83
2023-11-01T08:36:20.417Z,174.00
2023-11-01T08:38:47.875Z,180.10
2023-11-01T08:41:17.505Z,175.43
2023-11-01T08:43:45.144Z,188.17
2023-11-01T08:46:13.772Z,187.77
2023-11-01T08:48:41.183Z,191.43
2023-11-01T08:51:11.746Z,183.80
2023-11-01T08:53:39.241Z,183.33
2023-11-01T08:56:07.085Z,186.47
2023-11-01T08:58:34.644Z,183.73
2023-11-01T09:01:02.162Z,196.80
2023-11-01T09:03:30.784Z,186.37
2023-11-01T09:05:58.649Z,218.63
2023-11-01T09:08:26.491Z,207.93
2023-11-01T09:10:54.786Z,196.40
2023-11-01T09:13:23.892Z,202.83
2023-11-01T09:15:51.694Z,189.87
2023-11-01T09:18:20.081Z,190.47
2023-11-01T09:20:47.789Z,199.97
2023-11-01T09:23:15.455Z,196.13
2023-11-01T09:25:43.002Z,204.80
2023-11-01T09:28:10.401Z,199.43
2023-11-01T09:30:37.840Z,196.07
2023-11-01T09:33:05.347Z,201.53
2023-11-01T09:35:32.858Z,192.47
2023-11-01T09:38:00.267Z,193.73
2023-11-01T09:40:28.317Z,195.67
2023-11-01T09:42:55.753Z,194.57
2023-11-01T09:45:23.343Z,196.73
2023-11-01T09:47:51.439Z,193.97
2023-11-01T09:50:19.710Z,185.57
2023-11-01T09:52:47.187Z,188.30
2023-11-01T09:55:17.351Z,189.20
2023-11-01T09:57:45.926Z,193.43
2023-11-01T10:00:14.352Z,190.17
2023-11-01T10:02:41.838Z,193.67
2023-11-01T10:05:09.341Z,204.80
2023-11-01T10:07:36.757Z,187.23
2023-11-01T10:10:05.237Z,194.67
2023-11-01T10:12:32.848Z,190.27
2023-11-01T10:15:02.417Z,190.90
2023-11-01T10:17:30.056Z,193.87
2023-11-01T10:19:58.076Z,194.70
2023-11-01T10:22:26.749Z,190.13
2023-11-01T10:24:58.608Z,190.03
2023-11-01T10:27:26.111Z,192.63
2023-11-01T10:29:54.399Z,202.37
2023-11-01T10:32:24.398Z,191.10
2023-11-01T10:34:52.027Z,185.80
2023-11-01T10:37:19.847Z,180.13
2023-11-01T10:39:47.439Z,187.90
2023-11-01T10:42:18.503Z,194.03
2023-11-01T10:44:45.960Z,193.57
2023-11-01T10:47:15.155Z,193.80
2023-11-01T10:49:43.819Z,191.57
2023-11-01T10:52:12.597Z,208.83
2023-11-01T10:54:40.429Z,189.13
2023-11-01T10:57:08.332Z,193.10
2023-11-01T11:00:05.815Z,199.93
2023-11-01T11:03:05.685Z,180.50
2023-11-01T11:05:41.109Z,181.20
2023-11-01T11:08:12.062Z,182.53
2023-11-01T11:10:40.669Z,177.47
2023-11-01T11:13:11.206Z,181.47
2023-11-01T11:15:47.667Z,179.77
2023-11-01T11:18:23.496Z,180.13
2023-11-01T11:21:00.828Z,180.57
2023-11-01T11:23:40.597Z,179.43
2023-11-01T11:26:08.082Z,180.37
2023-11-01T11:28:41.820Z,176.57
2023-11-01T11:31:22.262Z,179.43
2023-11-01T11:33:49.750Z,186.73
2023-11-01T11:36:21.946Z,181.03
2023-11-01T11:38:56.912Z,182.97
2023-11-01T11:41:46.693Z,193.50
2023-11-01T11:44:20.952Z,210.20
2023-11-01T11:46:51.092Z,210.77
2023-11-01T11:49:31.820Z,188.27
2023-11-01T11:52:15.084Z,200.67
2023-11-01T11:54:42.894Z,191.37
2023-11-01T11:57:14.619Z,190.97
2023-11-01T11:59:43.593Z,189.83
2023-11-01T12:02:11.976Z,187.47
2023-11-01T12:04:44.045Z,192.73
2023-11-01T12:07:22.705Z,191.20
2023-11-01T12:09:51.769Z,190.83
2023-11-01T12:12:19.226Z,188.83
2023-11-01T12:14:47.904Z,185.00
2023-11-01T12:17:15.470Z,191.47
2023-11-01T12:19:47.532Z,191.70
2023-11-01T12:22:18.478Z,185.77
2023-11-01T12:24:46.451Z,189.47
2023-11-01T12:27:14.732Z,189.40
2023-11-01T12:29:50.807Z,190.53
2023-11-01T12:32:24.897Z,204.23
2023-11-01T12:34:52.317Z,193.73
2023-11-01T12:37:25.469Z,190.57
2023-11-01T12:40:06.139Z,186.27
2023-11-01T12:42:35.555Z,192.33
2023-11-01T12:45:04.608Z,200.27
2023-11-01T12:47:45.089Z,195.77
2023-11-01T12:50:25.548Z,195.67
2023-11-01T12:52:53.297Z,197.77
2023-11-01T12:55:21.150Z,207.33
2023-11-01T12:57:57.023Z,193.47
2023-11-01T13:00:25.278Z,224.23
2023-11-01T13:02:53.937Z,204.23
2023-11-01T13:05:22.063Z,193.50
2023-11-01T13:07:50.323Z,193.33
2023-11-01T13:10:17.718Z,211.10
2023-11-01T13:12:46.741Z,197.97
2023-11-01T13:15:14.983Z,191.30
2023-11-01T13:17:42.708Z,191.50
2023-11-01T13:20:10.217Z,195.60
2023-11-01T13:22:37.851Z,196.67
2023-11-01T13:25:05.559Z,226.13
2023-11-01T13:27:32.909Z,195.40
2023-11-01T13:30:00.440Z,203.40
2023-11-01T13:32:27.950Z,211.60
2023-11-01T13:34:56.083Z,199.57
2023-11-01T13:37:23.535Z,215.33
2023-11-01T13:39:51.025Z,197.57
2023-11-01T13:42:18.586Z,194.10
2023-11-01T13:44:46.097Z,198.50
2023-11-01T13:47:14.115Z,203.23
2023-11-01T13:49:43.181Z,197.03
2023-11-01T13:52:12.839Z,194.40
2023-11-01T13:54:40.720Z,198.40
2023-11-01T13:57:08.870Z,195.03
2023-11-01T13:59:36.557Z,195.57
2023-11-01T14:02:04.274Z,185.90
2023-11-01T14:04:32.981Z,201.27
2023-11-01T14:07:00.501Z,195.67
2023-11-01T14:09:28.020Z,202.57
2023-11-01T14:11:55.601Z,190.43
2023-11-01T14:14:24.178Z,198.70
2023-11-01T14:16:52.280Z,207.07
2023-11-01T14:19:19.927Z,203.63
2023-11-01T14:21:47.577Z,202.83
2023-11-01T14:24:19.026Z,198.03
2023-11-01T14:26:47.596Z,209.33
2023-11-01T14:29:15.091Z,201.80
2023-11-01T14:31:43.255Z,195.60
2023-11-01T14:34:10.839Z,199.67
2023-11-01T14:36:38.409Z,194.40
2023-11-01T14:39:06.008Z,196.57
2023-11-01T14:41:33.432Z,195.73
2023-11-01T14:44:01.610Z,199.30
2023-11-01T14:46:29.273Z,203.13
2023-11-01T14:48:56.834Z,198.77
2023-11-01T14:51:25.201Z,209.17
2023-11-01T14:53:52.584Z,206.57
2023-11-01T14:56:20.024Z,211.73
2023-11-01T14:58:49.917Z,212.37
2023-11-01T15:01:17.301Z,213.57
2023-11-01T15:03:45.649Z,205.20
2023-11-01T15:06:13.800Z,197.63
2023-11-01T15:08:41.720Z,211.27
2023-11-01T15:11:12.158Z,195.03
2023-11-01T15:13:40.354Z,197.47
2023-11-01T15:16:08.436Z,200.00
2023-11-01T15:18:37.051Z,198.10
2023-11-01T15:21:05.087Z,229.00
2023-11-01T15:23:33.429Z,271.20
2023-11-01T15:26:01.809Z,244.97
2023-11-01T15:28:29.692Z,214.97
2023-11-01T15:30:57.345Z,195.97
2023-11-01T15:33:26.006Z,204.83
2023-11-01T15:35:54.718Z,187.73
2023-11-01T15:38:22.263Z,200.63
2023-11-01T15:40:49.688Z,192.97
2023-11-01T15:43:17.137Z,196.73
2023-11-01T15:45:45.204Z,198.10
2023-11-01T15:48:12.852Z,198.13
2023-11-01T15:50:43.368Z,199.20
2023-11-01T15:53:10.980Z,196.80
2023-11-01T15:55:38.714Z,196.90
2023-11-01T15:58:06.237Z,203.47
2023-11-01T16:00:33.729Z,199.60
2023-11-01T16:03:01.364Z,202.80
2023-11-01T16:05:28.940Z,209.23
2023-11-01T16:07:56.473Z,210.23
2023-11-01T16:10:23.849Z,210.47
2023-11-01T16:12:51.259Z,199.57
2023-11-01T16:15:18.845Z,192.53
2023-11-01T16:17:46.828Z,204.30
2023-11-01T16:20:14.381Z,199.90
2023-11-01T16:22:43.948Z,194.37
2023-11-01T16:25:12.384Z,199.40
2023-11-01T16:27:39.797Z,198.10
2023-11-01T16:30:07.976Z,207.17
2023-11-01T16:32:39.114Z,195.67
2023-11-01T16:35:07.766Z,203.63
2023-11-01T16:37:35.194Z,192.73
2023-11-01T16:40:06.625Z,187.50
2023-11-01T16:42:34.407Z,193.43
2023-11-01T16:45:01.992Z,190.53
2023-11-01T16:47:29.594Z,192.90
2023-11-01T16:49:57.230Z,196.30
2023-11-01T16:52:24.692Z,196.93
2023-11-01T16:54:52.245Z,198.97
2023-11-01T16:57:19.757Z,199.20
2023-11-01T16:59:47.224Z,196.63
2023-11-01T17:02:14.946Z,197.33
2023-11-01T17:04:42.950Z,202.30
2023-11-01T17:07:10.738Z,206.77
2023-11-01T17:09:38.549Z,209.43
2023-11-01T17:12:06.795Z,233.00
2023-11-01T17:14:34.468Z,224.97
2023-11-01T17:17:02.641Z,212.17
2023-11-01T17:19:30.102Z,224.33
2023-11-01T17:21:57.602Z,220.53
2023-11-01T17:24:27.206Z,221.97
2023-11-01T17:26:59.000Z,211.23
2023-11-01T17:29:32.782Z,227.27
2023-11-01T17:32:00.405Z,254.67
2023-11-01T17:34:32.783Z,238.27
2023-11-01T17:37:03.090Z,254.20
2023-11-01T17:39:40.390Z,260.00
2023-11-01T17:42:11.894Z,269.90
2023-11-01T17:44:41.710Z,256.17
2023-11-01T17:47:29.140Z,261.00
2023-11-01T17:49:58.071Z,269.43
2023-11-01T17:52:35.375Z,254.87
2023-11-01T17:55:06.479Z,264.60
2023-11-01T17:57:35.636Z,284.80
2023-11-01T18:00:05.088Z,263.40
2023-11-01T18:03:18.241Z,257.07
2023-11-01T18:05:48.590Z,247.23
2023-11-01T18:08:19.440Z,257.53
2023-11-01T18:10:53.983Z,263.83
2023-11-01T18:13:24.560Z,258.60
2023-11-01T18:15:55.257Z,240.97
2023-11-01T18:18:51.848Z,234.37
2023-11-01T18:21:28.612Z,247.10
2023-11-01T18:24:29.613Z,246.00
2023-11-01T18:26:56.813Z,237.80
2023-11-01T18:29:24.250Z,246.50
2023-11-01T18:31:51.683Z,231.83
2023-11-01T18:34:24.960Z,229.43
2023-11-01T18:36:54.025Z,227.53
2023-11-01T18:39:23.025Z,237.40
2023-11-01T18:41:51.700Z,225.83
2023-11-01T18:44:35.219Z,223.90
2023-11-01T18:47:03.117Z,225.93
2023-11-01T18:49:30.446Z,221.17
2023-11-01T18:52:01.417Z,231.33
2023-11-01T18:54:42.727Z,223.20
2023-11-01T18:57:36.373Z,216.13
2023-11-01T19:00:29.632Z,218.50
2023-11-01T19:03:05.241Z,217.20
2023-11-01T19:05:34.401Z,218.60
2023-11-01T19:08:02.198Z,220.63
2023-11-01T19:10:37.432Z,217.53
2023-11-01T19:13:04.849Z,218.37
2023-11-01T19:15:44.040Z,222.03
2023-11-01T19:18:20.092Z,207.80
2023-11-01T19:20:49.729Z,211.27
2023-11-01T19:23:18.470Z,218.73
2023-11-01T19:25:46.712Z,220.80
2023-11-01T19:28:14.283Z,217.23
2023-11-01T19:30:41.744Z,226.47
2023-11-01T19:33:16.941Z,231.03
2023-11-01T19:35:49.921Z,238.57
2023-11-01T19:38:20.990Z,238.57
2023-11-01T19:40:48.627Z,243.50
2023-11-01T19:43:17.118Z,243.13
2023-11-01T19:45:44.659Z,236.53
2023-11-01T19:48:12.377Z,247.53
2023-11-01T19:50:39.841Z,247.33
2023-11-01T19:53:07.456Z,240.17
2023-11-01T19:55:36.704Z,235.90
2023-11-01T19:58:04.403Z,235.23
2023-11-01T20:00:35.042Z,237.53
2023-11-01T20:03:04.187Z,230.17
2023-11-01T20:05:32.320Z,234.43
2023-11-01T20:08:00.028Z,229.67
2023-11-01T20:10:27.869Z,234.93
2023-11-01T20:12:55.347Z,234.17
2023-11-01T20:15:23.838Z,233.93
2023-11-01T20:17:51.338Z,228.87
2023-11-01T20:20:18.964Z,224.00
2023-11-01T20:22:46.377Z,226.37
2023-11-01T20:25:14.853Z,221.10
2023-11-01T20:27:43.497Z,221.67
2023-11-01T20:30:11.000Z,217.57
2023-11-01T20:32:38.520Z,212.10
2023-11-01T20:35:05.828Z,225.50
2023-11-01T20:37:33.971Z,216.67
2023-11-01T20:40:01.531Z,214.67
2023-11-01T20:42:29.107Z,215.37
2023-11-01T20:44:57.253Z,216.63
2023-11-01T20:47:24.758Z,215.83
2023-11-01T20:49:52.322Z,234.23
2023-11-01T20:52:20.838Z,236.37
2023-11-01T20:55:02.126Z,229.70
2023-11-01T20:57:32.682Z,220.23
2023-11-01T21:00:01.136Z,218.07
2023-11-01T21:02:29.205Z,215.90
2023-11-01T21:04:57.192Z,226.07
2023-11-01T21:07:27.826Z,214.13
2023-11-01T21:09:55.699Z,227.83
2023-11-01T21:12:23.536Z,226.70
2023-11-01T21:14:51.197Z,225.53
2023-11-01T21:17:18.736Z,230.47
2023-11-01T21:19:47.709Z,229.27
2023-11-01T21:22:16.176Z,224.13
2023-11-01T21:24:45.002Z,217.73
2023-11-01T21:27:12.512Z,221.83
2023-11-01T21:29:39.888Z,231.83
2023-11-01T21:32:07.457Z,227.37
2023-11-01T21:34:35.368Z,220.23
2023-11-01T21:37:02.823Z,228.80
2023-11-01T21:39:30.536Z,224.70
2023-11-01T21:42:00.068Z,224.07
2023-11-01T21:44:38.354Z,219.37
2023-11-01T21:47:14.189Z,224.60
2023-11-01T21:49:42.098Z,220.17
2023-11-01T21:52:23.381Z,216.97
2023-11-01T21:54:52.876Z,217.30
2023-11-01T21:57:31.545Z,218.57
2023-11-01T22:00:01.712Z,217.70
2023-11-01T22:02:50.767Z,210.63
2023-11-01T22:05:19.967Z,207.87
2023-11-01T22:07:48.027Z,209.17
2023-11-01T22:10:21.510Z,205.10
2023-11-01T22:12:50.840Z,199.77
2023-11-01T22:15:26.640Z,201.40
2023-11-01T22:17:54.153Z,202.53
2023-11-01T22:20:24.614Z,207.60
2023-11-01T22:23:01.036Z,199.97
2023-11-01T22:25:48.384Z,202.73
2023-11-01T22:28:15.871Z,203.33
2023-11-01T22:30:43.330Z,200.90
2023-11-01T22:33:15.031Z,202.77
2023-11-01T22:35:46.625Z,208.93
2023-11-01T22:38:16.496Z,198.83
2023-11-01T22:40:45.415Z,203.77
2023-11-01T22:43:15.604Z,203.17
2023-11-01T22:45:43.677Z,203.57
2023-11-01T22:48:12.657Z,198.70
2023-11-01T22:50:40.247Z,198.60
2023-11-01T22:53:07.715Z,202.60
2023-11-01T22:55:41.273Z,202.37
2023-11-01T22:58:10.796Z,202.50
2023-11-01T23:00:38.357Z,196.57
2023-11-01T23:03:06.527Z,196.20
2023-11-01T23:05:35.596Z,199.27
2023-11-01T23:08:03.645Z,210.80
2023-11-01T23:10:33.755Z,195.57
2023-11-01T23:13:01.855Z,207.63
2023-11-01T23:15:29.577Z,201.93
2023-11-01T23:17:57.982Z,205.30
2023-11-01T23:20:25.669Z,205.63
2023-11-01T23:22:54.018Z,209.07
2023-11-01T23:25:31.694Z,200.57
2023-11-01T23:28:05.601Z,204.70
2023-11-01T23:30:51.431Z,206.17
2023-11-01T23:33:20.146Z,206.87
2023-11-01T23:35:47.952Z,201.50
2023-11-01T23:38:16.099Z,194.30
2023-11-01T23:40:46.929Z,203.33
2023-11-01T23:43:14.811Z,202.93
2023-11-01T23:45:42.347Z,195.20
2023-11-01T23:48:10.427Z,192.93
2023-11-01T23:50:43.217Z,189.40
2023-11-01T23:53:19.005Z,192.93
2023-11-01T23:55:51.532Z,193.57
2023-11-01T23:58:36.336Z,190.70
